sensor_id;sensor_type;location;lat;lon;timestamp;temperature;humidity
3023;DHT22;1521;53.584;9.938;2023-07-02T00:00:19;14.90;99.90
3023;DHT22;1521;53.584;9.938;2023-07-02T00:02:45;14.90;99.90
3023;DHT22;1521;53.584;9.938;2023-07-02T00:05:11;14.90;99.90
3023;DHT22;1521;53.584;9.938;2023-07-02T00:07:36;14.90;99.90
3023;DHT22;1521;53.584;9.938;2023-07-02T00:10:03;14.90;99.90
3023;DHT22;1521;53.584;9.938;2023-07-02T00:12:29;14.90;99.90
3023;DHT22;1521;53.584;9.938;2023-07-02T00:14:54;15.00;99.90
3023;DHT22;1521;53.584;9.938;2023-07-02T00:17:20;14.90;99.90
3023;DHT22;1521;53.584;9.938;2023-07-02T00:19:46;14.90;99.90
3023;DHT22;1521;53.584;9.938;2023-07-02T00:22:12;15.00;99.90
3023;DHT22;1521;53.584;9.938;2023-07-02T00:24:38;14.90;99.90
3023;DHT22;1521;53.584;9.938;2023-07-02T00:27:04;15.00;99.90
3023;DHT22;1521;53.584;9.938;2023-07-02T00:29:29;14.90;99.90
3023;DHT22;1521;53.584;9.938;2023-07-02T00:31:55;14.90;99.90
3023;DHT22;1521;53.584;9.938;2023-07-02T00:34:21;14.90;99.90
3023;DHT22;1521;53.584;9.938;2023-07-02T00:36:46;15.00;99.90
3023;DHT22;1521;53.584;9.938;2023-07-02T00:39:12;15.00;99.90
3023;DHT22;1521;53.584;9.938;2023-07-02T00:41:38;15.10;99.90
3023;DHT22;1521;53.584;9.938;2023-07-02T00:44:04;15.10;99.90
3023;DHT22;1521;53.584;9.938;2023-07-02T00:46:30;15.10;99.90
3023;DHT22;1521;53.584;9.938;2023-07-02T00:48:56;15.10;99.90
3023;DHT22;1521;53.584;9.938;2023-07-02T00:51:24;15.10;99.90
3023;DHT22;1521;53.584;9.938;2023-07-02T00:53:54;15.10;99.90
3023;DHT22;1521;53.584;9.938;2023-07-02T00:56:21;15.10;99.90
3023;DHT22;1521;53.584;9.938;2023-07-02T00:58:48;15.10;99.90
3023;DHT22;1521;53.584;9.938;2023-07-02T01:01:20;15.10;99.90
3023;DHT22;1521;53.584;9.938;2023-07-02T01:04:03;15.20;99.90
3023;DHT22;1521;53.584;9.938;2023-07-02T01:06:34;15.20;99.90
3023;DHT22;1521;53.584;9.938;2023-07-02T01:09:04;15.20;99.90
3023;DHT22;1521;53.584;9.938;2023-07-02T01:14:26;15.20;99.90
3023;DHT22;1521;53.584;9.938;2023-07-02T01:16:55;15.20;99.90
3023;DHT22;1521;53.584;9.938;2023-07-02T01:19:45;15.20;99.90
3023;DHT22;1521;53.584;9.938;2023-07-02T01:22:18;15.20;99.90
3023;DHT22;1521;53.584;9.938;2023-07-02T01:24:44;15.10;99.90
3023;DHT22;1521;53.584;9.938;2023-07-02T01:27:11;15.10;99.90
3023;DHT22;1521;53.584;9.938;2023-07-02T01:29:37;15.10;99.90
3023;DHT22;1521;53.584;9.938;2023-07-02T01:32:03;15.10;99.90
3023;DHT22;1521;53.584;9.938;2023-07-02T01:34:29;15.10;99.90
3023;DHT22;1521;53.584;9.938;2023-07-02T01:36:54;15.10;99.90
3023;DHT22;1521;53.584;9.938;2023-07-02T01:39:20;15.20;99.90
3023;DHT22;1521;53.584;9.938;2023-07-02T01:41:54;15.20;99.90
3023;DHT22;1521;53.584;9.938;2023-07-02T01:44:21;15.20;99.90
3023;DHT22;1521;53.584;9.938;2023-07-02T01:46:47;15.30;99.90
3023;DHT22;1521;53.584;9.938;2023-07-02T01:49:18;15.30;99.90
3023;DHT22;1521;53.584;9.938;2023-07-02T01:51:54;15.20;99.90
3023;DHT22;1521;53.584;9.938;2023-07-02T01:54:22;15.20;99.90
3023;DHT22;1521;53.584;9.938;2023-07-02T01:56:48;15.30;99.90
3023;DHT22;1521;53.584;9.938;2023-07-02T01:59:13;15.30;99.90
3023;DHT22;1521;53.584;9.938;2023-07-02T02:01:39;15.30;99.90
3023;DHT22;1521;53.584;9.938;2023-07-02T02:04:09;15.20;99.90
3023;DHT22;1521;53.584;9.938;2023-07-02T02:06:35;15.20;99.90
3023;DHT22;1521;53.584;9.938;2023-07-02T02:09:01;15.10;99.90
3023;DHT22;1521;53.584;9.938;2023-07-02T02:11:28;15.10;99.90
3023;DHT22;1521;53.584;9.938;2023-07-02T02:13:54;15.10;99.90
3023;DHT22;1521;53.584;9.938;2023-07-02T02:16:20;15.10;99.90
3023;DHT22;1521;53.584;9.938;2023-07-02T02:18:46;15.00;99.90
3023;DHT22;1521;53.584;9.938;2023-07-02T02:21:11;15.00;99.90
3023;DHT22;1521;53.584;9.938;2023-07-02T02:23:37;15.10;99.90
3023;DHT22;1521;53.584;9.938;2023-07-02T02:26:02;15.10;99.90
3023;DHT22;1521;53.584;9.938;2023-07-02T02:28:28;15.00;99.90
3023;DHT22;1521;53.584;9.938;2023-07-02T02:30:53;15.00;99.90
3023;DHT22;1521;53.584;9.938;2023-07-02T02:33:20;15.00;99.90
3023;DHT22;1521;53.584;9.938;2023-07-02T02:35:46;15.00;99.90
3023;DHT22;1521;53.584;9.938;2023-07-02T02:38:12;14.90;99.90
3023;DHT22;1521;53.584;9.938;2023-07-02T02:40:37;14.90;99.90
3023;DHT22;1521;53.584;9.938;2023-07-02T02:43:03;14.90;99.90
3023;DHT22;1521;53.584;9.938;2023-07-02T02:45:28;14.80;99.90
3023;DHT22;1521;53.584;9.938;2023-07-02T02:47:54;14.90;99.90
3023;DHT22;1521;53.584;9.938;2023-07-02T02:50:20;14.80;99.90
3023;DHT22;1521;53.584;9.938;2023-07-02T02:52:45;14.80;99.90
3023;DHT22;1521;53.584;9.938;2023-07-02T02:55:12;14.80;99.90
3023;DHT22;1521;53.584;9.938;2023-07-02T02:57:37;14.80;99.90
3023;DHT22;1521;53.584;9.938;2023-07-02T03:00:03;14.80;99.90
3023;DHT22;1521;53.584;9.938;2023-07-02T03:02:30;14.80;99.90
3023;DHT22;1521;53.584;9.938;2023-07-02T03:04:56;14.80;99.90
3023;DHT22;1521;53.584;9.938;2023-07-02T03:07:22;14.80;99.90
3023;DHT22;1521;53.584;9.938;2023-07-02T03:09:48;14.80;99.90
3023;DHT22;1521;53.584;9.938;2023-07-02T03:12:13;14.80;99.90
3023;DHT22;1521;53.584;9.938;2023-07-02T03:14:39;14.80;99.90
3023;DHT22;1521;53.584;9.938;2023-07-02T03:17:05;14.80;99.90
3023;DHT22;1521;53.584;9.938;2023-07-02T03:19:30;14.80;99.90
3023;DHT22;1521;53.584;9.938;2023-07-02T03:21:56;14.80;99.90
3023;DHT22;1521;53.584;9.938;2023-07-02T03:24:21;14.80;99.90
3023;DHT22;1521;53.584;9.938;2023-07-02T03:26:47;14.70;99.90
3023;DHT22;1521;53.584;9.938;2023-07-02T03:29:13;14.70;99.90
3023;DHT22;1521;53.584;9.938;2023-07-02T03:31:39;14.80;99.90
3023;DHT22;1521;53.584;9.938;2023-07-02T03:34:07;14.80;99.90
3023;DHT22;1521;53.584;9.938;2023-07-02T03:36:33;14.80;99.90
3023;DHT22;1521;53.584;9.938;2023-07-02T03:38:59;14.80;99.90
3023;DHT22;1521;53.584;9.938;2023-07-02T03:41:24;14.80;99.90
3023;DHT22;1521;53.584;9.938;2023-07-02T03:43:50;14.80;99.90
3023;DHT22;1521;53.584;9.938;2023-07-02T03:46:16;14.80;99.90
3023;DHT22;1521;53.584;9.938;2023-07-02T03:48:42;14.80;99.90
3023;DHT22;1521;53.584;9.938;2023-07-02T03:51:08;14.90;99.90
3023;DHT22;1521;53.584;9.938;2023-07-02T03:53:33;14.90;99.30
3023;DHT22;1521;53.584;9.938;2023-07-02T03:55:59;14.90;59.10
3023;DHT22;1521;53.584;9.938;2023-07-02T03:58:25;14.90;44.40
3023;DHT22;1521;53.584;9.938;2023-07-02T04:00:50;14.90;49.40
3023;DHT22;1521;53.584;9.938;2023-07-02T04:03:16;15.00;15.80
3023;DHT22;1521;53.584;9.938;2023-07-02T04:05:43;15.00;1.00
3023;DHT22;1521;53.584;9.938;2023-07-02T04:08:08;15.00;1.00
3023;DHT22;1521;53.584;9.938;2023-07-02T04:10:34;15.00;1.00
3023;DHT22;1521;53.584;9.938;2023-07-02T04:12:59;15.00;1.00
3023;DHT22;1521;53.584;9.938;2023-07-02T04:15:25;15.00;1.00
3023;DHT22;1521;53.584;9.938;2023-07-02T04:17:52;15.00;1.00
3023;DHT22;1521;53.584;9.938;2023-07-02T04:20:18;15.10;1.00
3023;DHT22;1521;53.584;9.938;2023-07-02T04:22:47;15.10;1.00
3023;DHT22;1521;53.584;9.938;2023-07-02T04:25:14;15.10;1.00
3023;DHT22;1521;53.584;9.938;2023-07-02T04:27:41;15.20;1.00
3023;DHT22;1521;53.584;9.938;2023-07-02T04:30:08;15.20;1.00
3023;DHT22;1521;53.584;9.938;2023-07-02T04:32:35;15.20;1.00
3023;DHT22;1521;53.584;9.938;2023-07-02T04:35:01;15.20;1.00
3023;DHT22;1521;53.584;9.938;2023-07-02T04:37:26;15.30;1.00
3023;DHT22;1521;53.584;9.938;2023-07-02T04:39:54;15.30;1.00
3023;DHT22;1521;53.584;9.938;2023-07-02T04:42:19;15.40;99.90
3023;DHT22;1521;53.584;9.938;2023-07-02T04:44:45;15.40;99.90
3023;DHT22;1521;53.584;9.938;2023-07-02T04:47:10;15.50;99.90
3023;DHT22;1521;53.584;9.938;2023-07-02T04:49:37;15.60;36.60
3023;DHT22;1521;53.584;9.938;2023-07-02T04:52:03;15.60;99.90
3023;DHT22;1521;53.584;9.938;2023-07-02T04:54:28;15.70;1.00
3023;DHT22;1521;53.584;9.938;2023-07-02T04:56:54;15.70;1.00
3023;DHT22;1521;53.584;9.938;2023-07-02T04:59:21;15.80;99.90
3023;DHT22;1521;53.584;9.938;2023-07-02T05:01:47;15.80;99.90
3023;DHT22;1521;53.584;9.938;2023-07-02T05:04:13;15.90;99.90
3023;DHT22;1521;53.584;9.938;2023-07-02T05:06:38;15.90;99.90
3023;DHT22;1521;53.584;9.938;2023-07-02T05:09:04;16.00;1.00
3023;DHT22;1521;53.584;9.938;2023-07-02T05:11:30;16.00;1.00
3023;DHT22;1521;53.584;9.938;2023-07-02T05:13:55;16.10;1.00
3023;DHT22;1521;53.584;9.938;2023-07-02T05:16:21;16.10;1.00
3023;DHT22;1521;53.584;9.938;2023-07-02T05:18:47;16.20;93.60
3023;DHT22;1521;53.584;9.938;2023-07-02T05:21:12;16.20;57.70
3023;DHT22;1521;53.584;9.938;2023-07-02T05:23:38;16.30;1.00
3023;DHT22;1521;53.584;9.938;2023-07-02T05:26:03;16.40;1.00
3023;DHT22;1521;53.584;9.938;2023-07-02T05:28:29;16.40;95.20
3023;DHT22;1521;53.584;9.938;2023-07-02T05:30:55;16.50;1.00
3023;DHT22;1521;53.584;9.938;2023-07-02T05:33:20;16.60;1.00
3023;DHT22;1521;53.584;9.938;2023-07-02T05:35:47;16.70;99.90
3023;DHT22;1521;53.584;9.938;2023-07-02T05:38:13;16.70;1.00
3023;DHT22;1521;53.584;9.938;2023-07-02T05:40:39;16.80;99.90
3023;DHT22;1521;53.584;9.938;2023-07-02T05:43:05;16.80;99.90
3023;DHT22;1521;53.584;9.938;2023-07-02T05:45:30;16.80;95.80
3023;DHT22;1521;53.584;9.938;2023-07-02T05:47:57;16.80;98.50
3023;DHT22;1521;53.584;9.938;2023-07-02T05:50:23;17.00;61.10
3023;DHT22;1521;53.584;9.938;2023-07-02T05:52:49;17.20;81.50
3023;DHT22;1521;53.584;9.938;2023-07-02T05:55:14;17.40;26.10
3023;DHT22;1521;53.584;9.938;2023-07-02T05:57:40;17.50;1.00
3023;DHT22;1521;53.584;9.938;2023-07-02T06:00:06;17.40;1.00
3023;DHT22;1521;53.584;9.938;2023-07-02T06:02:32;17.50;1.00
3023;DHT22;1521;53.584;9.938;2023-07-02T06:04:58;17.60;1.00
3023;DHT22;1521;53.584;9.938;2023-07-02T06:07:27;17.70;1.00
3023;DHT22;1521;53.584;9.938;2023-07-02T06:09:53;17.80;1.00
3023;DHT22;1521;53.584;9.938;2023-07-02T06:12:19;17.80;1.00
3023;DHT22;1521;53.584;9.938;2023-07-02T06:14:46;17.80;1.00
3023;DHT22;1521;53.584;9.938;2023-07-02T06:17:11;17.90;1.00
3023;DHT22;1521;53.584;9.938;2023-07-02T06:19:37;18.00;1.00
3023;DHT22;1521;53.584;9.938;2023-07-02T06:22:03;18.10;1.00
3023;DHT22;1521;53.584;9.938;2023-07-02T06:24:29;18.20;1.00
3023;DHT22;1521;53.584;9.938;2023-07-02T06:26:54;18.20;1.00
3023;DHT22;1521;53.584;9.938;2023-07-02T06:29:22;18.30;1.00
3023;DHT22;1521;53.584;9.938;2023-07-02T06:31:48;18.40;1.00
3023;DHT22;1521;53.584;9.938;2023-07-02T06:34:13;18.50;1.00
3023;DHT22;1521;53.584;9.938;2023-07-02T06:36:40;18.60;1.00
3023;DHT22;1521;53.584;9.938;2023-07-02T06:39:05;18.60;1.00
3023;DHT22;1521;53.584;9.938;2023-07-02T06:41:31;18.70;1.00
3023;DHT22;1521;53.584;9.938;2023-07-02T06:43:56;18.80;1.00
3023;DHT22;1521;53.584;9.938;2023-07-02T06:46:22;18.80;1.00
3023;DHT22;1521;53.584;9.938;2023-07-02T06:48:48;18.80;1.00
3023;DHT22;1521;53.584;9.938;2023-07-02T06:51:13;18.90;1.00
3023;DHT22;1521;53.584;9.938;2023-07-02T06:53:41;19.00;1.00
3023;DHT22;1521;53.584;9.938;2023-07-02T06:56:08;18.90;1.00
3023;DHT22;1521;53.584;9.938;2023-07-02T06:58:34;18.90;1.00
3023;DHT22;1521;53.584;9.938;2023-07-02T07:01:00;18.90;1.00
3023;DHT22;1521;53.584;9.938;2023-07-02T07:03:26;18.90;1.00
3023;DHT22;1521;53.584;9.938;2023-07-02T07:05:53;18.70;1.00
3023;DHT22;1521;53.584;9.938;2023-07-02T07:08:18;18.60;1.00
3023;DHT22;1521;53.584;9.938;2023-07-02T07:10:44;18.40;1.00
3023;DHT22;1521;53.584;9.938;2023-07-02T07:13:11;18.40;1.00
3023;DHT22;1521;53.584;9.938;2023-07-02T07:15:36;18.40;1.00
3023;DHT22;1521;53.584;9.938;2023-07-02T07:18:02;18.40;1.00
3023;DHT22;1521;53.584;9.938;2023-07-02T07:20:29;18.50;1.00
3023;DHT22;1521;53.584;9.938;2023-07-02T07:22:55;18.40;1.00
3023;DHT22;1521;53.584;9.938;2023-07-02T07:25:21;18.30;1.00
3023;DHT22;1521;53.584;9.938;2023-07-02T07:27:46;18.10;1.00
3023;DHT22;1521;53.584;9.938;2023-07-02T07:30:12;17.90;1.00
3023;DHT22;1521;53.584;9.938;2023-07-02T07:32:40;17.90;1.00
3023;DHT22;1521;53.584;9.938;2023-07-02T07:35:06;18.40;1.00
3023;DHT22;1521;53.584;9.938;2023-07-02T07:37:31;18.60;1.00
3023;DHT22;1521;53.584;9.938;2023-07-02T07:39:57;18.50;1.00
3023;DHT22;1521;53.584;9.938;2023-07-02T07:42:23;18.60;1.00
3023;DHT22;1521;53.584;9.938;2023-07-02T07:44:48;18.40;1.00
3023;DHT22;1521;53.584;9.938;2023-07-02T07:47:14;18.60;1.00
3023;DHT22;1521;53.584;9.938;2023-07-02T07:49:39;18.50;1.00
3023;DHT22;1521;53.584;9.938;2023-07-02T07:52:05;18.70;1.00
3023;DHT22;1521;53.584;9.938;2023-07-02T07:54:32;19.00;1.00
3023;DHT22;1521;53.584;9.938;2023-07-02T07:57:00;19.60;1.00
3023;DHT22;1521;53.584;9.938;2023-07-02T07:59:25;20.20;1.00
3023;DHT22;1521;53.584;9.938;2023-07-02T08:01:51;20.20;1.00
3023;DHT22;1521;53.584;9.938;2023-07-02T08:04:16;20.60;1.00
3023;DHT22;1521;53.584;9.938;2023-07-02T08:06:42;20.80;1.00
3023;DHT22;1521;53.584;9.938;2023-07-02T08:09:07;21.10;1.00
3023;DHT22;1521;53.584;9.938;2023-07-02T08:11:34;21.50;1.00
3023;DHT22;1521;53.584;9.938;2023-07-02T08:14:00;21.90;1.00
3023;DHT22;1521;53.584;9.938;2023-07-02T08:16:25;22.30;1.00
3023;DHT22;1521;53.584;9.938;2023-07-02T08:18:51;22.50;1.00
3023;DHT22;1521;53.584;9.938;2023-07-02T08:21:16;21.60;1.00
3023;DHT22;1521;53.584;9.938;2023-07-02T08:23:43;20.70;1.00
3023;DHT22;1521;53.584;9.938;2023-07-02T08:26:09;20.00;1.00
3023;DHT22;1521;53.584;9.938;2023-07-02T08:28:36;19.60;1.00
3023;DHT22;1521;53.584;9.938;2023-07-02T08:31:03;19.20;1.00
3023;DHT22;1521;53.584;9.938;2023-07-02T08:33:29;19.00;1.00
3023;DHT22;1521;53.584;9.938;2023-07-02T08:35:55;19.00;1.00
3023;DHT22;1521;53.584;9.938;2023-07-02T08:38:20;19.10;1.00
3023;DHT22;1521;53.584;9.938;2023-07-02T08:40:46;19.00;1.00
3023;DHT22;1521;53.584;9.938;2023-07-02T08:43:12;18.90;1.00
3023;DHT22;1521;53.584;9.938;2023-07-02T08:45:40;19.20;1.00
3023;DHT22;1521;53.584;9.938;2023-07-02T08:48:05;20.00;1.00
3023;DHT22;1521;53.584;9.938;2023-07-02T08:50:31;20.80;1.00
3023;DHT22;1521;53.584;9.938;2023-07-02T08:52:57;21.50;1.00
3023;DHT22;1521;53.584;9.938;2023-07-02T08:55:22;21.50;1.00
3023;DHT22;1521;53.584;9.938;2023-07-02T08:57:54;21.80;1.00
3023;DHT22;1521;53.584;9.938;2023-07-02T09:00:19;22.20;1.00
3023;DHT22;1521;53.584;9.938;2023-07-02T09:02:46;22.60;1.00
3023;DHT22;1521;53.584;9.938;2023-07-02T09:05:12;22.80;1.00
3023;DHT22;1521;53.584;9.938;2023-07-02T09:07:46;22.80;1.00
3023;DHT22;1521;53.584;9.938;2023-07-02T09:10:12;22.50;1.00
3023;DHT22;1521;53.584;9.938;2023-07-02T09:12:37;21.90;1.00
3023;DHT22;1521;53.584;9.938;2023-07-02T09:15:05;21.10;1.00
3023;DHT22;1521;53.584;9.938;2023-07-02T09:17:33;20.30;1.00
3023;DHT22;1521;53.584;9.938;2023-07-02T09:20:00;19.80;1.00
3023;DHT22;1521;53.584;9.938;2023-07-02T09:22:27;19.30;1.00
3023;DHT22;1521;53.584;9.938;2023-07-02T09:24:56;18.60;1.00
3023;DHT22;1521;53.584;9.938;2023-07-02T09:27:33;18.00;1.00
3023;DHT22;1521;53.584;9.938;2023-07-02T09:30:09;17.40;1.00
3023;DHT22;1521;53.584;9.938;2023-07-02T09:32:35;16.70;1.00
3023;DHT22;1521;53.584;9.938;2023-07-02T09:35:01;16.50;1.00
3023;DHT22;1521;53.584;9.938;2023-07-02T09:37:27;16.30;1.00
3023;DHT22;1521;53.584;9.938;2023-07-02T09:39:53;16.30;1.00
3023;DHT22;1521;53.584;9.938;2023-07-02T09:42:21;16.60;1.00
3023;DHT22;1521;53.584;9.938;2023-07-02T09:44:47;17.10;1.00
3023;DHT22;1521;53.584;9.938;2023-07-02T09:47:17;17.50;1.00
3023;DHT22;1521;53.584;9.938;2023-07-02T09:49:52;18.50;1.00
3023;DHT22;1521;53.584;9.938;2023-07-02T09:52:19;19.50;1.00
3023;DHT22;1521;53.584;9.938;2023-07-02T09:54:46;20.40;1.00
3023;DHT22;1521;53.584;9.938;2023-07-02T09:57:11;20.90;1.00
3023;DHT22;1521;53.584;9.938;2023-07-02T09:59:39;21.30;1.00
3023;DHT22;1521;53.584;9.938;2023-07-02T10:02:05;21.20;1.00
3023;DHT22;1521;53.584;9.938;2023-07-02T10:04:41;21.80;1.00
3023;DHT22;1521;53.584;9.938;2023-07-02T10:07:07;21.60;1.00
3023;DHT22;1521;53.584;9.938;2023-07-02T10:09:42;21.80;1.00
3023;DHT22;1521;53.584;9.938;2023-07-02T10:12:25;22.00;1.00
3023;DHT22;1521;53.584;9.938;2023-07-02T10:14:53;22.20;1.00
3023;DHT22;1521;53.584;9.938;2023-07-02T10:19:54;22.30;1.00
3023;DHT22;1521;53.584;9.938;2023-07-02T10:22:21;22.10;1.00
3023;DHT22;1521;53.584;9.938;2023-07-02T10:24:54;21.70;1.00
3023;DHT22;1521;53.584;9.938;2023-07-02T10:27:39;21.10;1.00
3023;DHT22;1521;53.584;9.938;2023-07-02T10:30:05;20.50;1.00
3023;DHT22;1521;53.584;9.938;2023-07-02T10:32:33;19.80;1.00
3023;DHT22;1521;53.584;9.938;2023-07-02T10:34:59;19.40;1.00
3023;DHT22;1521;53.584;9.938;2023-07-02T10:37:35;18.90;1.00
3023;DHT22;1521;53.584;9.938;2023-07-02T10:40:03;18.50;1.00
3023;DHT22;1521;53.584;9.938;2023-07-02T10:42:30;18.40;1.00
3023;DHT22;1521;53.584;9.938;2023-07-02T10:44:56;18.40;1.00
3023;DHT22;1521;53.584;9.938;2023-07-02T10:47:21;19.20;1.00
3023;DHT22;1521;53.584;9.938;2023-07-02T10:49:47;19.40;1.00
3023;DHT22;1521;53.584;9.938;2023-07-02T10:52:13;19.20;1.00
3023;DHT22;1521;53.584;9.938;2023-07-02T10:54:44;18.80;1.00
3023;DHT22;1521;53.584;9.938;2023-07-02T10:57:12;18.50;1.00
3023;DHT22;1521;53.584;9.938;2023-07-02T10:59:38;18.40;1.00
3023;DHT22;1521;53.584;9.938;2023-07-02T11:02:04;18.30;1.00
3023;DHT22;1521;53.584;9.938;2023-07-02T11:04:30;18.40;1.00
3023;DHT22;1521;53.584;9.938;2023-07-02T11:06:57;18.90;1.00
3023;DHT22;1521;53.584;9.938;2023-07-02T11:09:23;19.70;1.00
3023;DHT22;1521;53.584;9.938;2023-07-02T11:12:00;20.70;1.00
3023;DHT22;1521;53.584;9.938;2023-07-02T11:16:56;22.70;1.00
3023;DHT22;1521;53.584;9.938;2023-07-02T11:19:22;22.80;1.00
3023;DHT22;1521;53.584;9.938;2023-07-02T11:21:52;22.40;1.00
3023;DHT22;1521;53.584;9.938;2023-07-02T11:24:32;21.70;1.00
3023;DHT22;1521;53.584;9.938;2023-07-02T11:26:59;20.90;1.00
3023;DHT22;1521;53.584;9.938;2023-07-02T11:29:25;20.70;1.00
3023;DHT22;1521;53.584;9.938;2023-07-02T11:31:51;20.40;1.00
3023;DHT22;1521;53.584;9.938;2023-07-02T11:34:20;20.40;1.00
3023;DHT22;1521;53.584;9.938;2023-07-02T11:36:46;20.70;1.00
3023;DHT22;1521;53.584;9.938;2023-07-02T11:39:12;21.60;1.00
3023;DHT22;1521;53.584;9.938;2023-07-02T11:41:38;22.90;1.00
3023;DHT22;1521;53.584;9.938;2023-07-02T11:44:04;23.60;99.90
3023;DHT22;1521;53.584;9.938;2023-07-02T11:46:30;23.20;99.90
3023;DHT22;1521;53.584;9.938;2023-07-02T11:48:55;23.30;99.90
3023;DHT22;1521;53.584;9.938;2023-07-02T11:51:21;23.90;99.90
3023;DHT22;1521;53.584;9.938;2023-07-02T11:53:47;24.20;99.90
3023;DHT22;1521;53.584;9.938;2023-07-02T11:56:13;23.70;99.90
3023;DHT22;1521;53.584;9.938;2023-07-02T11:58:39;22.70;99.90
3023;DHT22;1521;53.584;9.938;2023-07-02T12:01:05;21.90;99.90
3023;DHT22;1521;53.584;9.938;2023-07-02T12:03:31;21.10;99.90
3023;DHT22;1521;53.584;9.938;2023-07-02T12:05:56;20.40;99.90
3023;DHT22;1521;53.584;9.938;2023-07-02T12:08:22;19.90;99.90
3023;DHT22;1521;53.584;9.938;2023-07-02T12:10:48;19.90;99.90
3023;DHT22;1521;53.584;9.938;2023-07-02T12:13:13;19.80;99.90
3023;DHT22;1521;53.584;9.938;2023-07-02T12:15:39;19.50;99.90
3023;DHT22;1521;53.584;9.938;2023-07-02T12:18:05;20.00;99.90
3023;DHT22;1521;53.584;9.938;2023-07-02T12:20:31;21.00;99.90
3023;DHT22;1521;53.584;9.938;2023-07-02T12:22:57;22.20;99.90
3023;DHT22;1521;53.584;9.938;2023-07-02T12:25:23;22.80;99.90
3023;DHT22;1521;53.584;9.938;2023-07-02T12:27:48;23.70;99.90
3023;DHT22;1521;53.584;9.938;2023-07-02T12:30:14;23.60;99.90
3023;DHT22;1521;53.584;9.938;2023-07-02T12:32:44;23.70;99.90
3023;DHT22;1521;53.584;9.938;2023-07-02T12:35:10;23.10;99.90
3023;DHT22;1521;53.584;9.938;2023-07-02T12:37:45;22.70;99.90
3023;DHT22;1521;53.584;9.938;2023-07-02T12:40:11;23.20;99.90
3023;DHT22;1521;53.584;9.938;2023-07-02T12:42:37;24.10;99.90
3023;DHT22;1521;53.584;9.938;2023-07-02T12:45:05;23.90;99.90
3023;DHT22;1521;53.584;9.938;2023-07-02T12:47:30;23.30;99.90
3023;DHT22;1521;53.584;9.938;2023-07-02T12:49:56;22.80;99.90
3023;DHT22;1521;53.584;9.938;2023-07-02T12:52:21;23.20;99.90
3023;DHT22;1521;53.584;9.938;2023-07-02T12:54:47;23.50;99.90
3023;DHT22;1521;53.584;9.938;2023-07-02T12:57:12;23.40;99.90
3023;DHT22;1521;53.584;9.938;2023-07-02T12:59:38;23.00;99.90
3023;DHT22;1521;53.584;9.938;2023-07-02T13:02:04;22.60;99.90
3023;DHT22;1521;53.584;9.938;2023-07-02T13:04:29;22.90;99.90
3023;DHT22;1521;53.584;9.938;2023-07-02T13:06:55;23.40;99.90
3023;DHT22;1521;53.584;9.938;2023-07-02T13:09:20;23.90;99.90
3023;DHT22;1521;53.584;9.938;2023-07-02T13:11:46;24.40;99.90
3023;DHT22;1521;53.584;9.938;2023-07-02T13:14:12;24.70;99.90
3023;DHT22;1521;53.584;9.938;2023-07-02T13:16:37;24.70;99.90
3023;DHT22;1521;53.584;9.938;2023-07-02T13:19:03;25.00;99.90
3023;DHT22;1521;53.584;9.938;2023-07-02T13:21:29;24.90;99.90
3023;DHT22;1521;53.584;9.938;2023-07-02T13:23:54;24.30;99.90
3023;DHT22;1521;53.584;9.938;2023-07-02T13:26:20;23.10;99.90
3023;DHT22;1521;53.584;9.938;2023-07-02T13:28:46;22.50;99.90
3023;DHT22;1521;53.584;9.938;2023-07-02T13:31:14;22.60;99.90
3023;DHT22;1521;53.584;9.938;2023-07-02T13:33:40;23.10;99.90
3023;DHT22;1521;53.584;9.938;2023-07-02T13:36:05;23.60;99.90
3023;DHT22;1521;53.584;9.938;2023-07-02T13:38:31;23.80;99.90
3023;DHT22;1521;53.584;9.938;2023-07-02T13:40:57;24.20;99.90
3023;DHT22;1521;53.584;9.938;2023-07-02T13:43:23;24.70;99.90
3023;DHT22;1521;53.584;9.938;2023-07-02T13:45:49;24.50;99.90
3023;DHT22;1521;53.584;9.938;2023-07-02T13:48:14;24.30;99.90
3023;DHT22;1521;53.584;9.938;2023-07-02T13:50:40;24.40;99.90
3023;DHT22;1521;53.584;9.938;2023-07-02T13:53:05;24.70;99.90
3023;DHT22;1521;53.584;9.938;2023-07-02T13:55:31;25.00;99.90
3023;DHT22;1521;53.584;9.938;2023-07-02T13:57:57;24.50;99.90
3023;DHT22;1521;53.584;9.938;2023-07-02T14:00:23;23.60;99.90
3023;DHT22;1521;53.584;9.938;2023-07-02T14:02:49;22.80;99.90
3023;DHT22;1521;53.584;9.938;2023-07-02T14:05:15;23.30;99.90
3023;DHT22;1521;53.584;9.938;2023-07-02T14:07:41;23.80;99.90
3023;DHT22;1521;53.584;9.938;2023-07-02T14:10:07;24.40;99.90
3023;DHT22;1521;53.584;9.938;2023-07-02T14:12:32;24.40;99.90
3023;DHT22;1521;53.584;9.938;2023-07-02T14:14:58;24.10;99.90
3023;DHT22;1521;53.584;9.938;2023-07-02T14:17:24;24.40;99.90
3023;DHT22;1521;53.584;9.938;2023-07-02T14:19:49;24.90;99.90
3023;DHT22;1521;53.584;9.938;2023-07-02T14:22:15;25.10;99.90
3023;DHT22;1521;53.584;9.938;2023-07-02T14:24:40;24.50;99.90
3023;DHT22;1521;53.584;9.938;2023-07-02T14:27:06;23.70;99.90
3023;DHT22;1521;53.584;9.938;2023-07-02T14:29:32;23.30;99.90
3023;DHT22;1521;53.584;9.938;2023-07-02T14:31:57;22.60;99.90
3023;DHT22;1521;53.584;9.938;2023-07-02T14:34:23;21.80;99.90
3023;DHT22;1521;53.584;9.938;2023-07-02T14:36:48;21.50;99.90
3023;DHT22;1521;53.584;9.938;2023-07-02T14:39:14;22.10;99.90
3023;DHT22;1521;53.584;9.938;2023-07-02T14:41:40;22.70;99.90
3023;DHT22;1521;53.584;9.938;2023-07-02T14:44:06;23.30;99.90
3023;DHT22;1521;53.584;9.938;2023-07-02T14:46:31;23.10;99.90
3023;DHT22;1521;53.584;9.938;2023-07-02T14:48:57;22.80;99.90
3023;DHT22;1521;53.584;9.938;2023-07-02T14:51:23;22.40;99.90
3023;DHT22;1521;53.584;9.938;2023-07-02T14:53:50;21.80;99.90
3023;DHT22;1521;53.584;9.938;2023-07-02T14:56:16;21.20;99.90
3023;DHT22;1521;53.584;9.938;2023-07-02T14:58:42;20.70;99.90
3023;DHT22;1521;53.584;9.938;2023-07-02T15:01:07;20.60;99.90
3023;DHT22;1521;53.584;9.938;2023-07-02T15:03:33;21.30;99.90
3023;DHT22;1521;53.584;9.938;2023-07-02T15:06:09;22.00;99.90
3023;DHT22;1521;53.584;9.938;2023-07-02T15:08:35;22.70;99.90
3023;DHT22;1521;53.584;9.938;2023-07-02T15:11:02;22.70;99.90
3023;DHT22;1521;53.584;9.938;2023-07-02T15:13:27;22.20;99.90
3023;DHT22;1521;53.584;9.938;2023-07-02T15:15:53;21.60;99.90
3023;DHT22;1521;53.584;9.938;2023-07-02T15:18:19;21.10;99.90
3023;DHT22;1521;53.584;9.938;2023-07-02T15:20:50;20.80;99.90
3023;DHT22;1521;53.584;9.938;2023-07-02T15:23:16;20.60;99.90
3023;DHT22;1521;53.584;9.938;2023-07-02T15:25:42;20.50;99.90
3023;DHT22;1521;53.584;9.938;2023-07-02T15:28:08;20.60;99.90
3023;DHT22;1521;53.584;9.938;2023-07-02T15:30:38;21.00;99.90
3023;DHT22;1521;53.584;9.938;2023-07-02T15:33:04;21.60;99.90
3023;DHT22;1521;53.584;9.938;2023-07-02T15:35:29;22.00;99.90
3023;DHT22;1521;53.584;9.938;2023-07-02T15:37:55;22.10;99.90
3023;DHT22;1521;53.584;9.938;2023-07-02T15:40:20;22.30;99.90
3023;DHT22;1521;53.584;9.938;2023-07-02T15:42:46;22.70;99.90
3023;DHT22;1521;53.584;9.938;2023-07-02T15:45:12;22.40;99.90
3023;DHT22;1521;53.584;9.938;2023-07-02T15:47:37;21.80;99.90
3023;DHT22;1521;53.584;9.938;2023-07-02T15:50:03;21.60;99.90
3023;DHT22;1521;53.584;9.938;2023-07-02T15:52:29;21.70;99.90
3023;DHT22;1521;53.584;9.938;2023-07-02T15:54:54;21.90;99.90
3023;DHT22;1521;53.584;9.938;2023-07-02T15:57:20;22.10;99.90
3023;DHT22;1521;53.584;9.938;2023-07-02T15:59:46;22.20;99.90
3023;DHT22;1521;53.584;9.938;2023-07-02T16:02:11;22.00;99.90
3023;DHT22;1521;53.584;9.938;2023-07-02T16:04:37;22.10;99.90
3023;DHT22;1521;53.584;9.938;2023-07-02T16:07:06;22.00;99.90
3023;DHT22;1521;53.584;9.938;2023-07-02T16:09:33;21.90;99.90
3023;DHT22;1521;53.584;9.938;2023-07-02T16:11:58;22.20;99.90